METAR Data
IDs: Format: Raw Decoded Include TAF

Data at: 1717 UTC 21 Sep 2018

KTPL 211651Z AUTO 17015KT SCT023 SCT029 29/24 A2998 RMK AO2 SLP153 T02940244 PWINO RVRNO $
KTPL 211551Z AUTO 17014G20KT BKN014 BKN021 BKN032 28/25 A2998 RMK AO2 SLP156 T02780250 PWINO RVRNO $
KTPL 211451Z AUTO 15010G17KT BKN010 OVC015 27/25 A2997 RMK AO2 CIG 008V013 SLP153 T02670250 51009 PWINO RVRNO $
KTPL 211426Z AUTO 16011KT BKN010 BKN015 26/25 A2997 RMK AO2 CIG 008V013 PWINO RVRNO $
KTPL 211351Z AUTO 15011KT BKN007 OVC013 26/25 A2997 RMK AO2 CIG 005V011 SLP153 T02560250 PWINO RVRNO $
KTPL 211338Z AUTO 16009KT OVC007 26/25 A2997 RMK AO2 CIG 005V011 PWINO RVRNO $
KTPL 211251Z AUTO 14010KT OVC005 25/25 A2995 RMK AO2 SLP145 T02500250 PWINO RVRNO $
KTPL 211151Z AUTO 15008KT OVC005 25/24 A2994 RMK AO2 SLP144 70090 T02500244 10250 20233 55000 PWINO RVRNO $
KTPL 211051Z AUTO 14009KT BKN007 OVC011 25/24 A2993 RMK AO2 CIG 005V009 SLP139 T02500244 PWINO RVRNO $
KTPL 211040Z AUTO 15011KT BKN007 OVC012 25/24 A2993 RMK AO2 CIG 006V009 PWINO RVRNO $
KTPL 211032Z AUTO 14009KT FEW005 OVC010 24/24 A2993 RMK AO2 CIG 008V014 PWINO RVRNO $
KTPL 211024Z AUTO 13009KT FEW005 BKN009 BKN012 24/24 A2994 RMK AO2 CIG 008V011 PWINO RVRNO $
KTPL 210851Z AUTO 16007KT BKN005 OVC008 24/24 A2994 RMK AO2 SLP141 T02440244 55005 PWINO RVRNO $
KTPL 210751Z AUTO 15011KT OVC005 24/24 A2994 RMK AO2 SLP141 T02390239 PWINO RVRNO $
KTPL 210703Z AUTO 15007KT BKN005 BKN009 24/23 A2995 RMK AO2 PWINO RVRNO $
KTPL 210651Z AUTO 14006KT BKN007 23/23 A2995 RMK AO2 CIG 005V010 SLP145 T02330233 PWINO RVRNO $
KTPL 210637Z AUTO 14008KT SCT007 SCT014 23/23 A2995 RMK AO2 PWINO RVRNO $
KTPL 210627Z AUTO 14008KT SCT007 BKN014 23/23 A2995 RMK AO2 PWINO RVRNO $
KTPL 210615Z AUTO 13007KT SCT009 SCT014 23/23 A2995 RMK AO2 PWINO RVRNO $
KTPL 210551Z AUTO 14007KT BKN009 23/23 A2996 RMK AO2 CIG 009V013 SLP146 P0001 60030 T02330228 10233 20217 403110206 58003 PWINO RVRNO $
KTPL 210524Z AUTO 13006KT BKN016 23/23 A2996 RMK AO2 P0001 PWINO RVRNO $
KTPL 210451Z AUTO 14006KT FEW014 23/23 A2997 RMK AO2 SLP150 T02280228 PWINO RVRNO $
KTPL 210351Z AUTO 14006KT BKN085 22/22 A2997 RMK AO2 SLP150 T02220222 PWINO RVRNO $
KTPL 210251Z AUTO 13003KT BKN070 22/22 A2997 RMK AO2 SLP151 P0001 60029 T02220222 50007 PWINO RVRNO $
KTPL 210051Z AUTO 16006KT FEW038 22/22 A2996 RMK AO2 TSE20 SLP150 P0026 T02170217 PWINO RVRNO $
KTPL 210020Z AUTO 16008KT SCT013 SCT036 21/21 A2995 RMK AO2 LTG DSNT NE AND E TSE20 P0024 PWINO RVRNO $
KTPL 210009Z AUTO 14011KT VCTS FEW005 BKN015 BKN022 21/21 A2996 RMK AO2 LTG DSNT E P0023 PWINO RVRNO $
KTPL 202351Z AUTO 14020G34KT TS SCT005 BKN010 OVC055 21/20 A2995 RMK AO2 PK WND 17038/2334 WSHFT 2330 LTG DSNT SE TSB07E22B34 SLP147 P0054 60060 T02060200 10311 20206 53007 PWINO RVRNO $
KTPL 202347Z AUTO 14025G34KT VCTS SCT005 BKN010 OVC055 21/20 A2994 RMK AO2 PK WND 17038/2334 WSHFT 2330 LTG DSNT SE TSB07E22B34 CIG 007V012 P0046 PWINO RVRNO $
KTPL 202344Z AUTO 14029G35KT VCTS BKN005 BKN008 BKN055 22/21 A2994 RMK AO2 PK WND 17038/2334 WSHFT 2330 LTG DSNT E AND SE TSB07E22B34 P0037 PWINO RVRNO $
KTPL 202339Z AUTO 15024G38KT VCTS SQ SCT005 SCT009 BKN024 23/22 A2994 RMK AO2 PK WND 17038/2334 LTG DSNT E-S TSB07E22B34 PRESRR P0016 PWINO RVRNO $
KTPL 202334Z AUTO 17028G38KT VCTS FEW008 SCT042 BKN055 26/22 A2993 RMK AO2 PK WND 17038/2334 LTG DSNT E-S TSB07E22B34 PRESRR P0005 PWINO RVRNO $
KTPL 202328Z AUTO 08004KT FEW043 SCT055 27/23 A2991 RMK AO2 LTG DSNT SE AND S TSB07E22 PWINO RVRNO $
KTPL 202313Z AUTO 00000KT VCTS FEW110 27/24 A2990 RMK AO2 LTG DSNT SE AND S TSB07 PWINO RVRNO $
KTPL 202251Z AUTO 14003KT FEW046 SCT110 27/23 A2991 RMK AO2 LTG DSNT SE AND S SLP132 T02670228 PWINO RVRNO $
KTPL 202151Z AUTO 12010KT CLR 28/21 A2991 RMK AO2 LTG DSNT S-W SLP130 T02780206 PWINO RVRNO $
KTPL 202051Z AUTO 11016G20KT FEW027 SCT036 28/22 A2993 RMK AO2 TSE04 SLP136 60006 T02780222 58015 PWINO RVRNO $
KTPL 202010Z AUTO 11004KT CLR 24/23 A2992 RMK AO2 LTG DSNT ALQDS TSE04 PRESFR PWINO RVRNO $
KTPL 201951Z AUTO 20004KT TS FEW030 SCT040 SCT050 24/23 A2994 RMK AO2 LTG DSNT ALQDS TSE1853B1855 SLP144 P0002 T02440228 PWINO RVRNO $
KTPL 201855Z AUTO 20008KT VCTS FEW023 SCT037 SCT050 26/22 A2996 RMK AO2 LTG DSNT S-W TSE53B55 PWINO RVRNO $
KTPL 201851Z AUTO 19007KT VCTS FEW028 SCT039 BKN050 26/22 A2995 RMK AO2 LTG DSNT S-W TSB13E35B39 SLP146 P0004 T02610222 PWINO RVRNO $
KTPL 201839Z AUTO 19014G17KT VCTS FEW024 SCT039 BKN050 27/25 A2995 RMK AO2 LTG DSNT SE-SW TSB13E35B39 P0004 PWINO RVRNO $
KTPL 201819Z AUTO 18010KT VCTS FEW080 29/23 A2996 RMK AO2 LTG DSNT S AND SW TSB13 PWINO RVRNO $
KTPL 201751Z AUTO 18010G14KT CLR 31/24 A2997 RMK AO2 LTG DSNT S AND SW SLP149 T03110239 10311 20233 58006 PWINO RVRNO $
KTPL 201717Z AUTO 16012KT SCT022 30/24 A2999 RMK AO2 PWINO RVRNO $
KTPL 201705Z AUTO 18009KT BKN022 31/24 A2999 RMK AO2 PWINO RVRNO $
KTPL 201651Z AUTO 18009G14KT SCT020 31/24 A2999 RMK AO2 SLP156 T03060244 PWINO RVRNO $
KTPL 201551Z AUTO 16010KT SCT016 28/24 A3000 RMK AO2 SLP159 T02830239 PWINO RVRNO $
KTPL 201537Z AUTO 17010KT SCT012 28/24 A3000 RMK AO2 PWINO RVRNO $
KTPL 201501Z AUTO 17009KT BKN010 BKN014 27/24 A2999 RMK AO2 CIG 008V013 PWINO RVRNO $
KTPL 201451Z AUTO 17009KT BKN008 27/24 A2999 RMK AO2 CIG 007V011 SLP156 T02720244 51013 PWINO RVRNO $
KTPL 201351Z AUTO 17007KT OVC006 25/24 A2998 RMK AO2 SLP154 T02500239 PWINO RVRNO $
KTPL 201326Z AUTO 17007KT BKN008 25/24 A2997 RMK AO2 CIG 006V011 PWINO RVRNO $
KTPL 201251Z AUTO 17009KT CLR 24/24 A2996 RMK AO2 SLP148 T02440239 PWINO RVRNO $
KTPL 201151Z AUTO 17006KT FEW009 23/23 A2995 RMK AO2 SLP142 T02330228 10261 20233 55000 PWINO RVRNO $
KTPL 201105Z AUTO 18005KT SCT009 24/23 A2994 RMK AO2 PWINO RVRNO $
KTPL 201051Z AUTO 18006KT CLR 24/23 A2994 RMK AO2 SLP138 T02390228 PWINO RVRNO $
KTPL 200951Z AUTO 17006KT CLR 24/23 A2994 RMK AO2 SLP138 T02390228 PWINO RVRNO $
KTPL 200851Z AUTO 17006KT CLR 24/23 A2995 RMK AO2 SLP142 T02390228 58006 PWINO RVRNO $
KTPL 200751Z AUTO 18007KT CLR 24/23 A2996 RMK AO2 SLP144 T02440228 PWINO RVRNO $
KTPL 200651Z AUTO 17008KT CLR 25/22 A2996 RMK AO2 SLP146 T02500222 PWINO RVRNO $
KTPL 200551Z AUTO 17011KT CLR 26/22 A2997 RMK AO2 SLP147 T02610222 10317 20256 403440217 51014 PWINO RVRNO $